Time;durP1;ratioP1;P1;durP2;ratioP2;P2;SDS_P1;SDS_P2;PMS_P1;PMS_P2;Temp;Humidity;BMP_temperature;BMP_pressure;BME280_temperature;BME280_humidity;BME280_pressure;Samples;Min_cycle;Max_cycle;Signal;HPM_P1;HPM_P2
2023/05/14 00:02:09;;;;;;;;;;;;;;;15.70;45.85;100226.94;5050613;28;19969;-77
2023/05/14 00:04:34;;;;;;;;;;;;;;;15.65;45.42;100222.19;5052241;28;19915;-77
2023/05/14 00:07:00;;;;;;;;;;;;;;;15.61;46.04;100212.13;5050829;28;19995;-77
2023/05/14 00:09:25;;;;;;;;;;;;;;;15.54;46.23;100217.34;5052284;28;20369;-77
2023/05/14 00:11:50;;;;;;;;;;;;;;;15.51;45.69;100213.22;5051701;28;19915;-78
2023/05/14 00:14:16;;;;;;;;;;;;;;;15.53;46.19;100210.38;5051658;28;19916;-78
2023/05/14 00:16:41;;;;;;;;;;;;;;;15.52;46.07;100209.56;5051368;28;20339;-77
2023/05/14 00:19:06;;;;;;;;;;;;;;;15.53;45.48;100194.41;5051518;28;19916;-77
2023/05/14 00:21:31;;;;;;;;;;;;;;;15.54;46.32;100199.53;5051670;28;19908;-77
2023/05/14 00:23:57;;;;;;;;;;;;;;;15.51;46.12;100196.44;5051520;28;19908;-77
2023/05/14 00:26:22;;;;;;;;;;;;;;;15.51;45.26;100188.47;5051858;28;19970;-77
2023/05/14 00:28:48;;;;;;;;;;;;;;;15.45;45.96;100187.41;5051963;28;19931;-77
2023/05/14 00:31:13;;;;;;;;;;;;;;;15.38;46.09;100189.19;5052162;28;19912;-77
2023/05/14 00:33:38;;;;;;;;;;;;;;;15.33;46.43;100193.44;5051792;28;20004;-77
2023/05/14 00:36:04;;;;;;;;;;;;;;;15.31;46.35;100187.50;5051718;28;19909;-77
2023/05/14 00:38:29;;;;;;;;;;;;;;;15.32;47.07;100194.47;5051918;28;19912;-78
2023/05/14 00:40:54;;;;;;;;;;;;;;;15.29;47.06;100192.19;5051975;28;19974;-77
2023/05/14 00:43:20;;;;;;;;;;;;;;;15.31;46.18;100200.78;5051631;28;19908;-77
2023/05/14 00:45:46;;;;;;;;;;;;;;;15.33;46.25;100198.75;5051536;28;19915;-77
2023/05/14 00:48:12;;;;;;;;;;;;;;;15.34;46.79;100195.91;5052028;28;19912;-77
2023/05/14 00:50:37;;;;;;;;;;;;;;;15.33;46.42;100206.75;5051615;28;20380;-77
2023/05/14 00:53:08;;;;;;;;;;;;;;;15.30;46.63;100201.81;5051546;28;19995;-78
2023/05/14 00:55:34;;;;;;;;;;;;;;;15.28;46.66;100191.34;5051407;28;19940;-77
2023/05/14 00:58:00;;;;;;;;;;;;;;;15.34;45.62;100198.56;5051120;28;20419;-78
2023/05/14 01:00:25;;;;;;;;;;;;;;;15.33;46.07;100188.94;5052883;28;20385;-77
2023/05/14 01:02:50;;;;;;;;;;;;;;;15.35;45.76;100194.06;5054917;28;20309;-78
2023/05/14 01:05:16;;;;;;;;;;;;;;;15.35;46.46;100196.72;5055364;28;20348;-77
2023/05/14 01:08:17;;;;;;;;;;;;;;;15.31;45.10;100196.28;5055099;28;19915;-78
2023/05/14 01:10:50;;;;;;;;;;;;;;;15.27;46.50;100185.22;5032880;28;19913;-76
2023/05/14 01:13:33;;;;;;;;;;;;;;;15.25;47.20;100176.59;5063924;28;19962;-77
2023/05/14 01:15:59;;;;;;;;;;;;;;;15.20;47.02;100173.69;5055059;28;19908;-78
2023/05/14 01:18:26;;;;;;;;;;;;;;;15.16;47.14;100166.31;5054697;28;19920;-77
2023/05/14 01:20:52;;;;;;;;;;;;;;;15.12;46.91;100173.03;5054653;28;20003;-77
2023/05/14 01:23:18;;;;;;;;;;;;;;;15.12;47.44;100170.34;5054725;28;20344;-77
2023/05/14 01:25:43;;;;;;;;;;;;;;;15.10;47.36;100157.25;5054410;28;19908;-77
2023/05/14 01:28:16;;;;;;;;;;;;;;;15.06;47.70;100153.34;5053015;28;19917;-77
2023/05/14 01:30:47;;;;;;;;;;;;;;;15.03;47.83;100153.72;5054684;28;19913;-77
2023/05/14 01:33:15;;;;;;;;;;;;;;;15.03;47.23;100148.41;5054684;28;19948;-77
2023/05/14 01:35:40;;;;;;;;;;;;;;;15.02;47.74;100146.75;5054605;28;20376;-78
2023/05/14 01:38:07;;;;;;;;;;;;;;;15.08;47.56;100148.66;5054427;28;19952;-77
2023/05/14 01:40:32;;;;;;;;;;;;;;;15.16;47.05;100160.97;5054418;28;19915;-78
2023/05/14 01:42:58;;;;;;;;;;;;;;;15.22;47.00;100154.88;5053098;28;20325;-77
2023/05/14 01:45:23;;;;;;;;;;;;;;;15.20;47.22;100152.44;5054294;28;19916;-77
2023/05/14 01:47:49;;;;;;;;;;;;;;;15.16;48.07;100145.84;5054195;28;20390;-77
2023/05/14 01:50:14;;;;;;;;;;;;;;;15.14;46.88;100147.88;5054003;28;19905;-77
2023/05/14 01:52:40;;;;;;;;;;;;;;;15.13;47.34;100148.88;5053933;28;19913;-79
2023/05/14 01:55:05;;;;;;;;;;;;;;;15.12;47.58;100143.75;5053893;28;19908;-77
2023/05/14 01:57:31;;;;;;;;;;;;;;;15.09;48.55;100142.31;5053638;28;20011;-77
2023/05/14 01:59:56;;;;;;;;;;;;;;;15.09;47.55;100144.16;5052757;28;19909;-77
2023/05/14 02:02:21;;;;;;;;;;;;;;;15.08;48.40;100143.31;5053998;28;20444;-77
2023/05/14 02:04:46;;;;;;;;;;;;;;;15.04;48.76;100141.25;5054118;28;19916;-77
2023/05/14 02:07:11;;;;;;;;;;;;;;;15.03;48.86;100152.91;5053930;28;19913;-77
2023/05/14 02:09:37;;;;;;;;;;;;;;;15.05;47.06;100150.88;5053895;28;19901;-77
2023/05/14 02:12:02;;;;;;;;;;;;;;;15.03;47.13;100150.22;5053645;28;19916;-78
2023/05/14 02:14:27;;;;;;;;;;;;;;;14.99;47.95;100156.94;5053664;28;19956;-77
2023/05/14 02:16:53;;;;;;;;;;;;;;;15.02;47.85;100165.38;5052208;28;20338;-77
2023/05/14 02:19:18;;;;;;;;;;;;;;;15.00;49.04;100161.25;5052303;28;19913;-78
2023/05/14 02:21:43;;;;;;;;;;;;;;;14.99;48.65;100152.47;5053671;28;19908;-77
2023/05/14 02:24:08;;;;;;;;;;;;;;;14.98;49.04;100161.44;5053830;28;19999;-77
2023/05/14 02:26:34;;;;;;;;;;;;;;;14.97;48.89;100156.31;5054423;28;19958;-77
2023/05/14 02:28:59;;;;;;;;;;;;;;;14.94;49.90;100152.22;5054210;28;20403;-78
2023/05/14 02:31:24;;;;;;;;;;;;;;;14.96;47.45;100152.00;5053816;28;19908;-78
2023/05/14 02:33:50;;;;;;;;;;;;;;;14.97;48.17;100159.81;5053581;28;19915;-77
2023/05/14 02:36:15;;;;;;;;;;;;;;;14.97;48.15;100151.00;5053738;28;19909;-77
2023/05/14 02:38:40;;;;;;;;;;;;;;;15.02;46.92;100159.22;5052058;28;20034;-78
2023/05/14 02:41:06;;;;;;;;;;;;;;;15.01;47.37;100162.91;5053335;28;19916;-77
2023/05/14 02:43:31;;;;;;;;;;;;;;;15.00;47.47;100158.59;5051782;28;19909;-77
2023/05/14 02:45:56;;;;;;;;;;;;;;;15.01;46.61;100168.22;5053111;28;19916;-77
2023/05/14 02:48:22;;;;;;;;;;;;;;;14.98;46.49;100161.44;5053149;28;19913;-77
2023/05/14 02:50:48;;;;;;;;;;;;;;;14.94;47.20;100161.00;5053189;28;20427;-79
2023/05/14 02:53:13;;;;;;;;;;;;;;;14.91;46.40;100164.06;5053226;28;20407;-78
2023/05/14 02:55:39;;;;;;;;;;;;;;;14.87;46.86;100154.81;5052905;28;20009;-78
2023/05/14 02:58:04;;;;;;;;;;;;;;;14.85;46.54;100158.63;5052815;28;20290;-80
2023/05/14 03:00:29;;;;;;;;;;;;;;;14.79;47.60;100162.88;5052860;28;19909;-79
2023/05/14 03:02:54;;;;;;;;;;;;;;;14.78;47.70;100163.06;5052789;28;19905;-79
2023/05/14 03:05:20;;;;;;;;;;;;;;;14.77;48.42;100169.41;5052981;28;19915;-78
2023/05/14 03:07:45;;;;;;;;;;;;;;;14.76;47.97;100168.59;5052795;28;20381;-78
2023/05/14 03:10:11;;;;;;;;;;;;;;;14.73;48.40;100170.78;5051511;28;19909;-78
2023/05/14 03:12:36;;;;;;;;;;;;;;;14.71;47.87;100160.34;5052719;28;19905;-78
2023/05/14 03:15:01;;;;;;;;;;;;;;;14.72;48.57;100171.81;5052644;28;19912;-79
2023/05/14 03:17:26;;;;;;;;;;;;;;;14.73;47.83;100171.63;5051324;28;19948;-78
2023/05/14 03:19:52;;;;;;;;;;;;;;;14.73;48.69;100173.44;5052489;28;19915;-78
2023/05/14 03:22:17;;;;;;;;;;;;;;;14.79;46.86;100167.38;5050810;28;20381;-79
2023/05/14 03:24:42;;;;;;;;;;;;;;;14.75;48.66;100168.78;5052599;28;19909;-78
2023/05/14 03:27:07;;;;;;;;;;;;;;;14.73;47.48;100170.78;5052064;28;19916;-78
2023/05/14 03:29:33;;;;;;;;;;;;;;;14.66;48.57;100176.03;5052281;28;20462;-79
2023/05/14 03:31:58;;;;;;;;;;;;;;;14.65;49.11;100182.38;5052574;28;19908;-78
2023/05/14 03:34:23;;;;;;;;;;;;;;;14.65;49.91;100186.88;5052266;28;20010;-77
2023/05/14 03:36:49;;;;;;;;;;;;;;;14.63;48.68;100195.03;5052219;28;19920;-78
2023/05/14 03:39:18;;;;;;;;;;;;;;;14.63;49.07;100193.19;5050985;28;19961;-77
2023/05/14 03:41:43;;;;;;;;;;;;;;;14.62;48.58;100201.34;5053074;28;19909;-78
2023/05/14 03:44:09;;;;;;;;;;;;;;;14.66;48.13;100191.16;5052863;28;20418;-77
2023/05/14 03:46:34;;;;;;;;;;;;;;;14.67;48.82;100198.13;5054313;28;20305;-77
2023/05/14 03:48:59;;;;;;;;;;;;;;;14.69;48.18;100204.91;5052706;28;19916;-77
2023/05/14 03:51:25;;;;;;;;;;;;;;;14.72;48.90;100212.50;5052329;28;20354;-77
2023/05/14 03:53:50;;;;;;;;;;;;;;;14.73;48.55;100202.69;5052608;28;19909;-78
2023/05/14 03:56:15;;;;;;;;;;;;;;;14.68;48.63;100205.91;5052100;28;19915;-78
2023/05/14 03:58:41;;;;;;;;;;;;;;;14.65;49.27;100211.59;5052239;28;19912;-78
2023/05/14 04:01:07;;;;;;;;;;;;;;;14.65;49.17;100222.25;5051903;28;20278;-78
2023/05/14 04:03:32;;;;;;;;;;;;;;;14.70;48.70;100213.69;5051936;28;19913;-77
2023/05/14 04:05:57;;;;;;;;;;;;;;;14.72;49.36;100215.16;5051900;28;19970;-77
2023/05/14 04:08:22;;;;;;;;;;;;;;;14.75;49.32;100211.31;5051856;28;19923;-78
2023/05/14 04:10:48;;;;;;;;;;;;;;;14.77;49.39;100210.09;5051777;28;20313;-77
2023/05/14 04:13:13;;;;;;;;;;;;;;;14.77;49.16;100209.28;5051751;28;19909;-78
2023/05/14 04:15:39;;;;;;;;;;;;;;;14.81;48.83;100214.03;5050551;28;19917;-78
2023/05/14 04:18:04;;;;;;;;;;;;;;;14.85;49.09;100217.13;5051711;28;19944;-78
2023/05/14 04:20:30;;;;;;;;;;;;;;;14.84;48.99;100218.97;5050749;28;19999;-78
2023/05/14 04:22:55;;;;;;;;;;;;;;;14.84;49.05;100213.66;5051753;28;19908;-78
2023/05/14 04:25:20;;;;;;;;;;;;;;;14.90;47.95;100217.41;5051650;28;19909;-78
2023/05/14 04:27:46;;;;;;;;;;;;;;;14.96;48.06;100219.31;5050140;28;19923;-78
2023/05/14 04:30:11;;;;;;;;;;;;;;;15.04;48.39;100218.38;5051660;28;19909;-78
2023/05/14 04:32:36;;;;;;;;;;;;;;;15.08;47.93;100217.78;5051436;28;20364;-78
2023/05/14 04:35:03;;;;;;;;;;;;;;;15.12;48.12;100211.06;5051472;28;20385;-78
2023/05/14 04:37:28;;;;;;;;;;;;;;;15.16;48.06;100222.97;5055700;28;19913;-78
2023/05/14 04:39:53;;;;;;;;;;;;;;;15.21;48.17;100211.78;5055602;28;19909;-78
2023/05/14 04:42:19;;;;;;;;;;;;;;;15.26;47.86;100210.19;5055571;28;20401;-78
2023/05/14 04:44:44;;;;;;;;;;;;;;;15.32;48.31;100213.91;5054243;28;19904;-78
2023/05/14 04:47:10;;;;;;;;;;;;;;;15.39;47.53;100204.13;5055343;28;19946;-78
2023/05/14 04:49:35;;;;;;;;;;;;;;;15.45;47.31;100206.03;5055253;28;19908;-77
2023/05/14 04:52:01;;;;;;;;;;;;;;;15.53;46.75;100210.38;5055309;28;20025;-78
2023/05/14 04:54:26;;;;;;;;;;;;;;;15.59;46.73;100199.00;5055115;28;19913;-78
2023/05/14 04:56:51;;;;;;;;;;;;;;;15.65;46.71;100200.09;5055476;28;19924;-78
2023/05/14 04:59:17;;;;;;;;;;;;;;;15.68;46.54;100203.19;5055344;28;19908;-78
2023/05/14 05:01:42;;;;;;;;;;;;;;;15.67;47.08;100214.84;5053981;28;19908;-78
2023/05/14 05:04:07;;;;;;;;;;;;;;;15.70;47.12;100221.63;5055183;28;19915;-78
2023/05/14 05:06:32;;;;;;;;;;;;;;;15.72;47.00;100228.38;5055178;28;19909;-78
2023/05/14 05:08:58;;;;;;;;;;;;;;;15.78;47.91;100227.63;5053942;28;20271;-79
2023/05/14 05:11:23;;;;;;;;;;;;;;;15.83;47.70;100238.50;5055011;28;19999;-78
2023/05/14 05:13:49;;;;;;;;;;;;;;;15.89;47.29;100255.53;5053778;28;19909;-78
2023/05/14 05:16:14;;;;;;;;;;;;;;;15.92;47.12;100257.81;5054907;28;19915;-78
2023/05/14 05:18:40;;;;;;;;;;;;;;;15.98;47.73;100275.66;5054792;28;19912;-77
2023/05/14 05:21:05;;;;;;;;;;;;;;;16.05;46.95;100265.88;5054826;28;19913;-78
2023/05/14 05:23:31;;;;;;;;;;;;;;;16.14;47.21;100262.03;5053556;28;19908;-78
2023/05/14 05:25:56;;;;;;;;;;;;;;;16.21;46.97;100246.09;5054567;28;19958;-77
2023/05/14 05:28:21;;;;;;;;;;;;;;;16.23;46.50;100235.22;5053529;28;20305;-78
2023/05/14 05:30:46;;;;;;;;;;;;;;;16.27;46.58;100221.31;5053330;28;19963;-79
2023/05/14 05:33:12;;;;;;;;;;;;;;;16.28;46.56;100222.97;5053432;28;19919;-79
2023/05/14 05:35:37;;;;;;;;;;;;;;;16.27;46.39;100226.66;5052128;28;19909;-78
2023/05/14 05:38:02;;;;;;;;;;;;;;;16.33;46.03;100220.53;5053359;28;20480;-78
2023/05/14 05:40:27;;;;;;;;;;;;;;;16.35;47.25;100228.31;5053382;28;19948;-78
2023/05/14 05:42:53;;;;;;;;;;;;;;;16.37;47.25;100234.31;5052032;28;19909;-78
2023/05/14 05:45:18;;;;;;;;;;;;;;;16.37;46.72;100237.78;5052929;28;20445;-77
2023/05/14 05:47:43;;;;;;;;;;;;;;;16.37;46.47;100245.78;5053280;28;19908;-78
2023/05/14 05:50:09;;;;;;;;;;;;;;;16.36;46.70;100238.00;5053197;28;19913;-77
2023/05/14 05:52:34;;;;;;;;;;;;;;;16.37;46.81;100239.63;5052908;28;20373;-78
2023/05/14 05:55:00;;;;;;;;;;;;;;;16.41;46.96;100240.88;5052967;28;19909;-77
2023/05/14 05:57:26;;;;;;;;;;;;;;;16.43;46.94;100241.50;5052664;28;19970;-78
2023/05/14 05:59:51;;;;;;;;;;;;;;;16.46;45.80;100235.78;5052854;28;19908;-78
2023/05/14 06:02:16;;;;;;;;;;;;;;;16.44;46.00;100233.31;5053136;28;20358;-78
2023/05/14 06:04:41;;;;;;;;;;;;;;;16.44;46.54;100243.97;5053043;28;19955;-78
2023/05/14 06:07:07;;;;;;;;;;;;;;;16.40;47.50;100252.56;5052852;28;19905;-78
2023/05/14 06:09:32;;;;;;;;;;;;;;;16.39;47.25;100250.91;5052973;28;19908;-78
2023/05/14 06:11:57;;;;;;;;;;;;;;;16.41;47.27;100259.53;5052792;28;19912;-78
2023/05/14 06:14:22;;;;;;;;;;;;;;;16.42;47.79;100266.50;5052740;28;19918;-78
2023/05/14 06:16:48;;;;;;;;;;;;;;;16.48;46.95;100276.38;5052539;28;20015;-77
2023/05/14 06:19:13;;;;;;;;;;;;;;;16.56;46.99;100286.06;5052548;28;19908;-79
2023/05/14 06:21:38;;;;;;;;;;;;;;;16.59;46.87;100280.31;5052457;28;19915;-78
2023/05/14 06:24:04;;;;;;;;;;;;;;;16.62;47.22;100283.41;5052290;28;20419;-78
2023/05/14 06:26:29;;;;;;;;;;;;;;;16.65;47.05;100287.53;5052776;28;19908;-78
2023/05/14 06:28:55;;;;;;;;;;;;;;;16.63;48.43;100277.06;5014526;28;1118910;-78
2023/05/14 06:31:20;;;;;;;;;;;;;;;16.69;47.01;100286.97;5052374;28;19966;-78
2023/05/14 06:33:45;;;;;;;;;;;;;;;16.74;46.87;100289.03;5053643;28;19970;-78
2023/05/14 06:36:10;;;;;;;;;;;;;;;16.79;47.45;100287.41;5053497;28;19963;-77
2023/05/14 06:38:36;;;;;;;;;;;;;;;16.87;46.63;100289.06;5052126;28;19919;-78
2023/05/14 06:41:01;;;;;;;;;;;;;;;16.88;47.12;100298.72;5053550;28;20377;-77
2023/05/14 06:43:27;;;;;;;;;;;;;;;16.94;46.72;100297.09;5053826;28;20349;-78
2023/05/14 06:45:52;;;;;;;;;;;;;;;16.97;46.68;100297.50;5054899;28;19916;-77
2023/05/14 06:48:18;;;;;;;;;;;;;;;17.02;46.30;100295.06;5054399;28;19909;-78
2023/05/14 06:50:43;;;;;;;;;;;;;;;17.04;46.57;100287.66;5051969;28;19909;-77
2023/05/14 06:53:09;;;;;;;;;;;;;;;17.05;46.02;100296.50;5053305;28;19904;-78
2023/05/14 06:55:34;;;;;;;;;;;;;;;17.01;47.02;100306.75;5053118;28;19908;-78
2023/05/14 06:58:00;;;;;;;;;;;;;;;17.02;46.29;100305.72;5051925;28;20386;-79
2023/05/14 07:00:25;;;;;;;;;;;;;;;17.00;46.75;100307.78;5052744;28;19908;-78
2023/05/14 07:02:50;;;;;;;;;;;;;;;16.98;46.84;100314.34;5052816;28;20438;-78
2023/05/14 07:05:15;;;;;;;;;;;;;;;16.95;47.33;100320.06;5052725;28;20394;-79
2023/05/14 07:07:41;;;;;;;;;;;;;;;16.95;47.20;100317.41;5053012;28;19909;-78
2023/05/14 07:10:07;;;;;;;;;;;;;;;17.03;46.45;100322.56;5052830;28;19909;-79
2023/05/14 07:12:32;;;;;;;;;;;;;;;17.05;45.74;100317.84;5053245;28;19947;-78
2023/05/14 07:14:57;;;;;;;;;;;;;;;17.04;46.71;100311.69;5052924;28;19913;-78
2023/05/14 07:17:22;;;;;;;;;;;;;;;17.04;46.67;100311.69;5052794;28;20027;-78
2023/05/14 07:19:48;;;;;;;;;;;;;;;17.09;46.14;100306.59;5052741;28;19908;-78
2023/05/14 07:22:13;;;;;;;;;;;;;;;17.10;46.95;100310.09;5051278;28;19965;-78
2023/05/14 07:24:38;;;;;;;;;;;;;;;17.10;46.38;100300.25;5052626;28;20385;-78
2023/05/14 07:27:04;;;;;;;;;;;;;;;17.17;46.56;100308.25;5052358;28;19909;-79
2023/05/14 07:29:29;;;;;;;;;;;;;;;17.20;46.67;100315.84;5052507;28;19909;-79
2023/05/14 07:31:54;;;;;;;;;;;;;;;17.21;47.36;100314.00;5052328;28;19976;-77
2023/05/14 07:34:20;;;;;;;;;;;;;;;17.21;47.62;100316.69;5051095;28;20003;-78
2023/05/14 07:36:45;;;;;;;;;;;;;;;17.23;47.28;100323.47;5050972;28;19958;-78
2023/05/14 07:39:10;;;;;;;;;;;;;;;17.22;47.35;100335.16;5052281;28;20329;-79
2023/05/14 07:41:36;;;;;;;;;;;;;;;17.24;47.32;100329.63;5052062;28;19905;-78
2023/05/14 07:44:01;;;;;;;;;;;;;;;17.28;46.72;100338.88;5052073;28;19966;-78
2023/05/14 07:46:26;;;;;;;;;;;;;;;17.29;47.23;100336.00;5051918;28;20000;-78
2023/05/14 07:48:52;;;;;;;;;;;;;;;17.35;47.04;100350.38;5052023;28;20316;-78
2023/05/14 07:51:17;;;;;;;;;;;;;;;17.36;47.16;100358.19;5051879;28;19905;-78
2023/05/14 07:53:42;;;;;;;;;;;;;;;17.38;47.02;100345.47;5050556;28;19913;-78
2023/05/14 07:56:07;;;;;;;;;;;;;;;17.41;46.12;100352.25;5051876;28;19912;-78
2023/05/14 07:58:33;;;;;;;;;;;;;;;17.41;47.51;100346.91;5051684;28;19966;-78
2023/05/14 08:01:00;;;;;;;;;;;;;;;17.38;46.96;100342.78;5051820;28;19909;-78
2023/05/14 08:03:25;;;;;;;;;;;;;;;17.40;47.22;100353.25;5051648;28;19909;-78
2023/05/14 08:05:51;;;;;;;;;;;;;;;17.39;47.60;100343.59;5051798;28;19958;-79
2023/05/14 08:08:16;;;;;;;;;;;;;;;17.43;47.47;100342.19;5051607;28;19916;-76
2023/05/14 08:10:41;;;;;;;;;;;;;;;17.51;47.66;100330.47;5051660;28;20422;-79
2023/05/14 08:13:07;;;;;;;;;;;;;;;17.62;47.20;100330.69;5051675;28;19916;-77
2023/05/14 08:15:32;;;;;;;;;;;;;;;17.72;47.98;100327.66;5050378;28;19913;-78
2023/05/14 08:18:02;;;;;;;;;;;;;;;17.74;47.72;100321.06;5051769;28;19956;-76
2023/05/14 08:20:28;;;;;;;;;;;;;;;17.80;46.00;100314.09;5051764;28;20038;-76
2023/05/14 08:22:53;;;;;;;;;;;;;;;17.79;48.04;100313.25;5051500;28;19915;-79
2023/05/14 08:25:18;;;;;;;;;;;;;;;17.79;47.81;100299.09;5052054;28;19908;-77
2023/05/14 08:27:44;;;;;;;;;;;;;;;17.85;48.29;100308.97;5051715;28;19917;-78
2023/05/14 08:30:09;;;;;;;;;;;;;;;17.86;47.07;100305.28;5051572;28;20000;-77
2023/05/14 08:32:34;;;;;;;;;;;;;;;17.93;46.24;100308.75;5051443;28;19913;-78
2023/05/14 08:35:00;;;;;;;;;;;;;;;17.95;46.85;100316.56;5051438;28;19944;-78
2023/05/14 08:37:25;;;;;;;;;;;;;;;17.92;46.67;100317.81;5051436;28;20007;-78
2023/05/14 08:39:50;;;;;;;;;;;;;;;17.97;47.75;100323.34;5051558;28;20313;-78
2023/05/14 08:42:19;;;;;;;;;;;;;;;17.96;46.78;100318.22;5051477;28;19951;-78
2023/05/14 08:44:47;;;;;;;;;;;;;;;17.90;47.62;100309.19;5051501;28;19987;-78
2023/05/14 08:47:13;;;;;;;;;;;;;;;17.86;46.57;100304.47;5051379;28;19908;-78
2023/05/14 08:49:42;;;;;;;;;;;;;;;17.84;46.87;100304.66;5051419;28;20307;-77
2023/05/14 08:52:08;;;;;;;;;;;;;;;17.85;47.04;100303.63;5051421;28;20318;-78
2023/05/14 08:54:33;;;;;;;;;;;;;;;17.89;46.96;100306.72;5051179;28;19909;-77
2023/05/14 08:56:59;;;;;;;;;;;;;;;17.85;48.23;100306.31;5051241;28;20386;-78
2023/05/14 08:59:24;;;;;;;;;;;;;;;17.82;48.96;100313.88;5051195;28;20433;-78
2023/05/14 09:01:53;;;;;;;;;;;;;;;17.73;48.40;100311.41;5051243;28;20442;-77
2023/05/14 09:04:19;;;;;;;;;;;;;;;17.67;48.71;100312.25;5051271;28;19909;-77
2023/05/14 09:06:46;;;;;;;;;;;;;;;17.63;48.93;100319.00;5051220;28;19908;-77
2023/05/14 09:09:11;;;;;;;;;;;;;;;17.60;50.25;100331.94;5051336;28;19935;-78
2023/05/14 09:11:46;;;;;;;;;;;;;;;17.57;50.28;100348.34;5051329;28;19909;-78
2023/05/14 09:14:11;;;;;;;;;;;;;;;17.50;49.70;100369.72;5049826;28;19916;-78
2023/05/14 09:16:37;;;;;;;;;;;;;;;17.45;50.01;100377.50;5049790;28;19909;-77
2023/05/14 09:19:05;;;;;;;;;;;;;;;17.42;49.76;100391.25;5050984;28;19920;-77
2023/05/14 09:21:31;;;;;;;;;;;;;;;17.42;49.99;100388.59;5053139;28;19951;-76
2023/05/14 09:23:56;;;;;;;;;;;;;;;17.39;49.90;100384.47;5054882;28;19909;-77
2023/05/14 09:26:25;;;;;;;;;;;;;;;17.35;50.53;100374.41;5054716;28;19915;-78
2023/05/14 09:28:55;;;;;;;;;;;;;;;17.29;51.95;100364.53;5054537;28;19923;-77
2023/05/14 09:31:20;;;;;;;;;;;;;;;17.21;52.35;100357.53;5054602;28;20308;-77
2023/05/14 09:33:49;;;;;;;;;;;;;;;17.15;52.93;100361.00;5054667;28;19908;-76
2023/05/14 09:36:15;;;;;;;;;;;;;;;17.13;53.54;100361.22;5053251;28;19961;-76
2023/05/14 09:38:40;;;;;;;;;;;;;;;17.09;52.10;100359.09;5054367;28;19916;-77
2023/05/14 09:41:06;;;;;;;;;;;;;;;17.06;54.15;100357.66;5054492;28;19916;-77
2023/05/14 09:43:31;;;;;;;;;;;;;;;17.07;56.49;100353.97;5054363;28;19908;-77
2023/05/14 09:45:56;;;;;;;;;;;;;;;17.07;55.84;100343.31;5054324;28;19959;-76
2023/05/14 09:48:21;;;;;;;;;;;;;;;17.09;57.43;100329.75;5054443;28;20405;-75
2023/05/14 09:50:47;;;;;;;;;;;;;;;17.09;56.71;100319.09;5054191;28;19909;-76
2023/05/14 09:53:12;;;;;;;;;;;;;;;17.11;57.13;100309.88;5054272;28;20377;-76
2023/05/14 09:55:38;;;;;;;;;;;;;;;17.14;55.56;100300.66;5034448;28;19913;-75
2023/05/14 09:58:04;;;;;;;;;;;;;;;17.15;56.88;100307.63;5032811;28;19913;-77
2023/05/14 10:00:33;;;;;;;;;;;;;;;17.15;56.10;100307.63;5032934;28;19913;-76
2023/05/14 10:03:03;;;;;;;;;;;;;;;17.13;56.69;100307.00;5034197;28;19948;-77
2023/05/14 10:05:28;;;;;;;;;;;;;;;17.14;56.25;100306.00;5034079;28;19963;-76
2023/05/14 10:07:55;;;;;;;;;;;;;;;17.15;56.27;100318.31;5033924;28;19909;-77
2023/05/14 10:10:23;;;;;;;;;;;;;;;17.14;57.11;100322.00;5032595;28;20330;-76
2023/05/14 10:12:51;;;;;;;;;;;;;;;17.13;56.01;100323.84;5033968;28;19959;-77
2023/05/14 10:15:19;;;;;;;;;;;;;;;17.12;57.30;100326.72;5032605;28;19909;-77
2023/05/14 10:17:47;;;;;;;;;;;;;;;17.13;56.11;100286.50;5033925;28;19913;-77
2023/05/14 10:20:14;;;;;;;;;;;;;;;17.13;58.21;100278.50;5032576;28;20029;-77
2023/05/14 10:22:39;;;;;;;;;;;;;;;17.17;58.57;100273.56;5033932;28;20039;-76
2023/05/14 10:25:05;;;;;;;;;;;;;;;17.19;57.42;100273.38;5033987;28;19948;-77
2023/05/14 10:27:31;;;;;;;;;;;;;;;17.14;56.10;100280.13;5033764;28;20317;-76
2023/05/14 10:29:56;;;;;;;;;;;;;;;17.13;55.07;100278.50;5048973;28;19920;-77
2023/05/14 10:32:23;;;;;;;;;;;;;;;17.11;56.86;100269.03;5032256;28;19909;-77
2023/05/14 10:34:49;;;;;;;;;;;;;;;17.09;53.95;100261.25;5033378;28;19984;-76
2023/05/14 10:37:16;;;;;;;;;;;;;;;17.06;57.49;100250.94;5048572;28;20372;-77
2023/05/14 10:39:57;;;;;;;;;;;;;;;17.04;55.26;100247.66;5031951;28;19909;-77
2023/05/14 10:42:23;;;;;;;;;;;;;;;17.05;60.04;100246.63;5033406;28;20371;-78
2023/05/14 10:44:54;;;;;;;;;;;;;;;17.07;58.69;100249.09;5033246;28;19909;-77
2023/05/14 10:47:20;;;;;;;;;;;;;;;17.12;59.34;100254.66;5033391;28;19941;-77
2023/05/14 10:49:48;;;;;;;;;;;;;;;17.19;58.50;100260.03;5033118;28;19967;-77
2023/05/14 10:52:15;;;;;;;;;;;;;;;17.26;56.70;100260.84;5033407;28;19995;-77
2023/05/14 10:54:44;;;;;;;;;;;;;;;17.33;57.97;100259.81;5033028;28;19909;-76
2023/05/14 10:57:11;;;;;;;;;;;;;;;17.42;59.37;100252.44;5033009;28;19913;-77
2023/05/14 10:59:39;;;;;;;;;;;;;;;17.48;60.13;100252.44;5033163;28;20429;-77
2023/05/14 11:02:04;;;;;;;;;;;;;;;17.47;59.27;100249.97;5032894;28;19948;-77
2023/05/14 11:04:30;;;;;;;;;;;;;;;17.42;54.69;100247.91;5032690;28;19955;-76
2023/05/14 11:06:55;;;;;;;;;;;;;;;17.38;56.38;100254.69;5048059;28;19907;-77
2023/05/14 11:09:21;;;;;;;;;;;;;;;17.33;57.66;100261.69;5032909;28;19916;-77
2023/05/14 11:11:47;;;;;;;;;;;;;;;17.21;58.74;100272.13;5032936;28;20382;-77
2023/05/14 11:14:12;;;;;;;;;;;;;;;17.22;55.68;100264.94;5032948;28;19913;-77
2023/05/14 11:16:38;;;;;;;;;;;;;;;17.22;59.76;100265.78;5032797;28;20044;-77
2023/05/14 11:19:03;;;;;;;;;;;;;;;17.21;58.91;100261.47;5032720;28;20309;-78
2023/05/14 11:21:31;;;;;;;;;;;;;;;17.25;57.59;100257.34;5032792;28;19963;-77
2023/05/14 11:23:56;;;;;;;;;;;;;;;17.26;57.36;100250.16;5032559;28;19931;-78
2023/05/14 11:26:22;;;;;;;;;;;;;;;17.28;56.34;100235.59;5032438;28;19909;-77
2023/05/14 11:28:47;;;;;;;;;;;;;;;17.27;57.66;100227.78;5032490;28;19924;-76
2023/05/14 11:31:13;;;;;;;;;;;;;;;17.34;57.97;100216.09;5047824;28;20397;-77
2023/05/14 11:33:38;;;;;;;;;;;;;;;17.39;57.39;100223.47;5032212;28;19983;-77
2023/05/14 11:36:04;;;;;;;;;;;;;;;17.45;58.61;100222.66;5032296;28;20022;-77
2023/05/14 11:38:29;;;;;;;;;;;;;;;17.57;58.66;100229.03;5032170;28;19920;-77
2023/05/14 11:40:55;;;;;;;;;;;;;;;17.63;57.82;100217.50;5032315;28;19916;-77
2023/05/14 11:43:24;;;;;;;;;;;;;;;17.70;56.28;100225.53;5031995;28;19909;-78
2023/05/14 11:45:52;;;;;;;;;;;;;;;17.79;53.75;100219.78;5032320;28;19909;-77
2023/05/14 11:48:18;;;;;;;;;;;;;;;17.85;54.29;100218.16;5030842;28;19916;-77
2023/05/14 11:50:44;;;;;;;;;;;;;;;17.93;55.70;100211.75;5032160;28;19909;-76
2023/05/14 11:53:09;;;;;;;;;;;;;;;18.02;55.07;100214.00;5032003;28;19909;-77
2023/05/14 11:55:35;;;;;;;;;;;;;;;18.10;56.26;100203.06;5031882;28;19935;-77
2023/05/14 11:58:00;;;;;;;;;;;;;;;18.15;56.35;100215.81;5031964;28;19913;-77
2023/05/14 12:00:26;;;;;;;;;;;;;;;18.21;57.76;100211.47;5031911;28;19909;-76
2023/05/14 12:02:51;;;;;;;;;;;;;;;18.31;56.05;100214.50;5031951;28;19988;-77
2023/05/14 12:05:17;;;;;;;;;;;;;;;18.38;53.68;100213.44;5031904;28;19909;-77
2023/05/14 12:07:45;;;;;;;;;;;;;;;18.45;53.83;100215.28;5031616;28;20302;-77
2023/05/14 12:10:11;;;;;;;;;;;;;;;18.41;54.27;100213.03;5031662;28;19959;-78
2023/05/14 12:12:36;;;;;;;;;;;;;;;18.47;52.96;100214.03;5030593;28;20397;-77
2023/05/14 12:15:09;;;;;;;;;;;;;;;18.64;54.77;100209.88;5031754;28;19915;-77
2023/05/14 12:17:36;;;;;;;;;;;;;;;18.90;52.50;100202.72;5046964;28;19913;-76
2023/05/14 12:20:02;;;;;;;;;;;;;;;19.01;51.85;100202.84;5046877;28;19909;-77
2023/05/14 12:22:28;;;;;;;;;;;;;;;19.01;51.29;100200.19;5031903;28;20368;-77
2023/05/14 12:24:57;;;;;;;;;;;;;;;19.00;51.56;100200.38;5031686;28;19999;-78
2023/05/14 12:27:26;;;;;;;;;;;;;;;19.22;51.00;100203.53;5046901;28;19917;-78
2023/05/14 12:30:02;;;;;;;;;;;;;;;19.48;50.10;100197.16;5031768;28;19909;-78